Time;durP1;ratioP1;P1;durP2;ratioP2;P2;SDS_P1;SDS_P2;PMS_P1;PMS_P2;Temp;Humidity;BMP_temperature;BMP_pressure;BME280_temperature;BME280_humidity;BME280_pressure;Samples;Min_cycle;Max_cycle;Signal;HPM_P1;HPM_P2
2022/06/25 00:01:12;;;;;;;1.77;1.48;;;16.00;99.90;;;;;;5138083;27;20087;-92
2022/06/25 00:03:38;;;;;;;3.55;1.35;;;15.90;99.90;;;;;;5120851;27;20041;-91
2022/06/25 00:06:05;;;;;;;1.58;0.60;;;15.90;99.90;;;;;;5103700;27;20024;-92
2022/06/25 00:08:31;;;;;;;2.38;1.60;;;16.30;99.90;;;;;;5120789;27;20032;-92
2022/06/25 00:10:57;;;;;;;0.32;0.32;;;16.40;99.90;;;;;;5120566;27;20079;-92
2022/06/25 00:13:23;;;;;;;1.08;0.85;;;15.90;99.90;;;;;;5120585;27;20049;-92
2022/06/25 00:15:49;;;;;;;0.40;0.40;;;15.80;99.90;;;;;;5120604;27;20031;-92
2022/06/25 00:18:15;;;;;;;1.05;0.93;;;15.80;99.90;;;;;;5120574;27;20020;-92
2022/06/25 00:20:41;;;;;;;1.05;0.95;;;15.80;99.90;;;;;;5120358;28;20054;-92
2022/06/25 00:23:07;;;;;;;0.77;0.75;;;15.80;99.90;;;;;;5103481;27;20028;-92
2022/06/25 00:25:33;;;;;;;0.93;0.88;;;16.20;99.90;;;;;;5103402;27;20037;-92
2022/06/25 00:27:59;;;;;;;1.75;1.05;;;15.80;99.90;;;;;;5120220;27;20035;-92
2022/06/25 00:30:24;;;;;;;1.55;1.30;;;15.80;99.90;;;;;;5120120;27;20034;-92
2022/06/25 00:32:50;;;;;;;2.80;1.70;;;15.80;99.90;;;;;;5103485;27;20020;-92
2022/06/25 00:35:16;;;;;;;2.05;1.25;;;16.80;99.90;;;;;;5120156;27;20028;-92
2022/06/25 00:37:41;;;;;;;0.57;0.52;;;16.90;99.90;;;;;;5103301;27;20030;-92
2022/06/25 00:40:09;;;;;;;1.38;1.10;;;15.70;99.90;;;;;;5103397;27;20084;-91
2022/06/25 00:42:34;;;;;;;2.15;0.80;;;15.80;99.90;;;;;;5103413;27;20023;-92
2022/06/25 00:45:00;;;;;;;0.47;0.47;;;15.70;99.90;;;;;;5119797;27;20050;-92
2022/06/25 00:47:26;;;;;;;1.95;1.27;;;16.40;99.90;;;;;;5137721;27;20024;-92
2022/06/25 00:49:53;;;;;;;2.47;1.23;;;15.70;99.90;;;;;;5137905;27;20027;-92
2022/06/25 00:52:21;;;;;;;0.98;0.43;;;16.40;99.90;;;;;;5120140;27;20087;-92
2022/06/25 00:55:04;;;;;;;1.00;0.80;;;15.60;99.90;;;;;;5120239;27;20042;-91
2022/06/25 00:57:33;;;;;;;1.52;0.93;;;15.70;99.90;;;;;;5137665;27;20036;-92
2022/06/25 01:00:04;;;;;;;1.05;0.85;;;15.70;99.90;;;;;;5103191;27;20087;-91
2022/06/25 01:02:30;;;;;;;0.82;0.68;;;15.70;99.90;;;;;;5106483;27;20040;-91
2022/06/25 01:04:56;;;;;;;1.10;1.00;;;16.70;99.90;;;;;;5106601;27;20095;-91
2022/06/25 01:07:22;;;;;;;0.73;0.60;;;15.70;99.90;;;;;;5106771;27;20099;-91
2022/06/25 01:09:49;;;;;;;0.80;0.65;;;15.70;99.90;;;;;;5106847;28;20019;-92
2022/06/25 01:12:15;;;;;;;2.20;1.25;;;15.60;99.90;;;;;;5106766;27;20117;-91
2022/06/25 01:14:41;;;;;;;1.80;0.93;;;15.60;99.90;;;;;;5123627;27;20047;-92
2022/06/25 01:17:08;;;;;;;0.57;0.57;;;15.60;99.90;;;;;;5106474;28;20023;-91
2022/06/25 01:19:34;;;;;;;0.38;0.38;;;15.60;99.90;;;;;;5123708;28;20019;-91
2022/06/25 01:22:04;;;;;;;0.55;0.55;;;16.70;99.90;;;;;;5106635;28;20028;-91
2022/06/25 01:24:31;;;;;;;0.85;0.32;;;15.50;99.90;;;;;;5123508;27;20053;-92
2022/06/25 01:26:57;;;;;;;7.78;1.17;;;15.50;99.90;;;;;;5123358;27;20048;-92
2022/06/25 01:29:23;;;;;;;1.45;1.02;;;15.50;99.90;;;;;;5141046;27;20026;-92
2022/06/25 01:31:49;;;;;;;0.70;0.70;;;15.40;99.90;;;;;;5123477;28;20043;-91
2022/06/25 01:34:14;;;;;;;2.42;1.35;;;15.40;99.90;;;;;;5140868;27;20026;-91
2022/06/25 01:36:40;;;;;;;1.15;0.98;;;15.40;99.90;;;;;;5124017;27;20027;-92
2022/06/25 01:39:06;;;;;;;0.47;0.47;;;15.40;99.90;;;;;;5124164;27;20016;-91
2022/06/25 01:41:31;;;;;;;0.93;0.80;;;15.40;99.90;;;;;;5106811;27;20031;-92
2022/06/25 01:43:57;;;;;;;0.57;0.55;;;15.40;99.90;;;;;;5123216;27;20031;-91
2022/06/25 01:46:23;;;;;;;1.52;0.85;;;16.50;99.90;;;;;;5105806;27;20029;-91
2022/06/25 01:48:48;;;;;;;1.05;0.80;;;15.40;99.90;;;;;;5123109;27;20061;-91
2022/06/25 01:51:16;;;;;;;0.60;0.60;;;16.10;99.90;;;;;;5106153;27;20036;-91
2022/06/25 01:53:42;;;;;;;1.45;0.25;;;15.80;99.90;;;;;;5122937;28;20035;-92
2022/06/25 01:56:08;;;;;;;0.30;0.28;;;15.40;99.90;;;;;;5106128;27;20032;-92
2022/06/25 01:58:34;;;;;;;0.63;0.63;;;15.50;99.90;;;;;;5106393;27;20028;-92
2022/06/25 02:00:59;;;;;;;0.52;0.50;;;16.10;99.90;;;;;;5140262;27;20087;-91
2022/06/25 02:03:25;;;;;;;1.13;0.70;;;15.30;99.90;;;;;;5105776;27;20095;-91
2022/06/25 02:05:57;;;;;;;1.23;1.00;;;15.40;99.90;;;;;;5122640;27;20042;-91
2022/06/25 02:08:32;;;;;;;1.38;0.60;;;15.20;99.90;;;;;;5122704;27;20040;-91
2022/06/25 02:10:59;;;;;;;0.93;0.85;;;15.20;99.90;;;;;;5106072;27;20045;-91
2022/06/25 02:13:25;;;;;;;0.43;0.25;;;15.20;99.90;;;;;;5121737;27;20083;-91
2022/06/25 02:15:52;;;;;;;1.17;0.73;;;15.20;99.90;;;;;;5139952;27;20042;-91
2022/06/25 02:18:18;;;;;;;1.48;1.02;;;15.10;99.90;;;;;;5122248;27;20073;-91
2022/06/25 02:20:44;;;;;;;8.65;2.72;;;15.10;99.90;;;;;;5105265;27;20028;-91
2022/06/25 02:23:11;;;;;;;0.55;0.52;;;15.10;99.90;;;;;;5122195;27;20039;-92
2022/06/25 02:25:37;;;;;;;0.90;0.85;;;15.10;99.90;;;;;;5121885;28;20053;-91
2022/06/25 02:28:03;;;;;;;0.55;0.45;;;15.10;99.90;;;;;;5105043;27;20039;-91
2022/06/25 02:30:29;;;;;;;1.13;1.02;;;15.00;99.90;;;;;;5121884;28;20054;-91
2022/06/25 02:32:54;;;;;;;0.50;0.50;;;15.20;99.90;;;;;;5121831;27;20015;-91
2022/06/25 02:35:20;;;;;;;1.38;0.95;;;15.00;99.90;;;;;;5121676;27;20036;-91
2022/06/25 02:37:46;;;;;;;2.53;1.73;;;15.00;99.90;;;;;;5121669;27;20027;-91
2022/06/25 02:40:12;;;;;;;0.70;0.70;;;15.40;99.90;;;;;;5139306;27;20042;-92
2022/06/25 02:42:39;;;;;;;1.58;0.90;;;15.00;99.90;;;;;;5121598;27;20039;-92
2022/06/25 02:45:06;;;;;;;1.55;1.17;;;15.40;99.90;;;;;;5121374;27;20720;-91
2022/06/25 02:47:33;;;;;;;0.43;0.40;;;14.90;99.90;;;;;;5139362;27;20023;-91
2022/06/25 02:49:59;;;;;;;1.13;0.80;;;15.00;99.90;;;;;;5104389;27;20103;-92
2022/06/25 02:52:27;;;;;;;0.63;0.63;;;15.00;99.90;;;;;;5088728;27;20031;-91
2022/06/25 02:54:53;;;;;;;0.98;0.65;;;15.00;99.90;;;;;;5121156;27;20087;-91
2022/06/25 03:00:07;;;;;;;0.30;0.17;;;15.00;99.90;;;;;;5121383;27;20031;-91
2022/06/25 03:02:33;;;;;;;0.73;0.68;;;15.00;99.90;;;;;;5104327;27;20058;-91
2022/06/25 03:04:59;;;;;;;1.27;1.00;;;14.90;99.90;;;;;;5121262;27;20024;-91
2022/06/25 03:07:25;;;;;;;1.17;0.90;;;15.00;99.90;;;;;;5138147;27;20070;-91
2022/06/25 03:09:51;;;;;;;0.52;0.20;;;14.90;99.90;;;;;;5121271;28;20046;-91
2022/06/25 03:12:17;;;;;;;1.75;0.70;;;14.90;99.90;;;;;;5121204;27;20028;-92
2022/06/25 03:14:42;;;;;;;0.20;0.20;;;14.90;99.90;;;;;;5120941;27;20028;-90
2022/06/25 03:17:08;;;;;;;1.17;0.52;;;14.90;99.90;;;;;;5103927;27;20024;-91
2022/06/25 03:19:33;;;;;;;0.43;0.43;;;15.60;99.90;;;;;;5103958;27;20059;-91
2022/06/25 03:21:59;;;;;;;1.50;1.05;;;14.90;99.90;;;;;;5120975;27;20051;-90
2022/06/25 03:24:25;;;;;;;3.15;1.85;;;14.90;99.90;;;;;;5138507;27;20023;-92
2022/06/25 03:26:50;;;;;;;1.00;0.63;;;15.00;99.90;;;;;;5120459;27;20036;-92
2022/06/25 03:29:16;;;;;;;2.20;0.70;;;16.20;99.90;;;;;;5138432;27;20079;-92
2022/06/25 03:31:42;;;;;;;1.27;1.08;;;15.10;99.90;;;;;;5138213;27;20082;-91
2022/06/25 03:34:07;;;;;;;0.55;0.55;;;15.20;99.90;;;;;;5103927;27;20035;-91
2022/06/25 03:36:33;;;;;;;0.88;0.52;;;15.60;99.90;;;;;;5103791;27;20055;-91
2022/06/25 03:39:02;;;;;;;1.17;0.85;;;16.20;99.90;;;;;;5120603;27;20038;-92
2022/06/25 03:41:35;;;;;;;1.20;1.00;;;16.10;99.90;;;;;;5103474;27;20032;-91
2022/06/25 03:44:06;;;;;;;0.90;0.73;;;15.30;99.90;;;;;;5120591;27;20015;-91
2022/06/25 03:46:34;;;;;;;0.77;0.57;;;15.30;99.90;;;;;;5103656;27;20209;-91
2022/06/25 03:49:00;;;;;;;0.77;0.57;;;15.90;99.90;;;;;;5120330;27;20087;-92
2022/06/25 03:51:27;;;;;;;0.25;0.20;;;15.30;99.90;;;;;;5138061;27;20023;-91
2022/06/25 03:53:53;;;;;;;1.58;0.95;;;15.80;99.90;;;;;;5120337;27;20027;-90
2022/06/25 03:56:19;;;;;;;5.40;1.85;;;15.30;99.90;;;;;;5120083;27;20024;-90
2022/06/25 03:58:46;;;;;;;1.50;1.10;;;16.40;99.90;;;;;;5103231;27;20032;-90
2022/06/25 04:01:12;;;;;;;0.65;0.63;;;15.70;99.90;;;;;;5119927;27;20020;-89
2022/06/25 04:03:39;;;;;;;0.57;0.57;;;15.70;99.90;;;;;;5120089;27;20035;-90
2022/06/25 04:06:05;;;;;;;0.80;0.68;;;16.00;99.90;;;;;;5102893;27;20035;-90
2022/06/25 04:08:31;;;;;;;2.25;1.13;;;15.40;99.90;;;;;;5119974;27;20057;-87
2022/06/25 04:10:57;;;;;;;0.38;0.38;;;15.50;99.90;;;;;;5103023;27;20118;-89
2022/06/25 04:13:22;;;;;;;0.63;0.57;;;16.70;99.90;;;;;;5103061;27;20047;-90
2022/06/25 04:15:48;;;;;;;0.65;0.65;;;15.50;99.90;;;;;;5103195;28;20045;-89
2022/06/25 04:18:14;;;;;;;0.43;0.40;;;15.50;99.90;;;;;;5137627;27;20062;-89
2022/06/25 04:20:39;;;;;;;1.50;1.05;;;15.60;99.90;;;;;;5119669;27;20032;-89
2022/06/25 04:23:05;;;;;;;0.98;0.90;;;15.90;99.90;;;;;;5102907;28;20041;-90
2022/06/25 04:25:31;;;;;;;1.40;0.85;;;15.70;99.90;;;;;;5119681;27;20028;-90
2022/06/25 04:30:41;;;;;;;1.90;1.42;;;15.80;99.90;;;;;;5119771;28;20036;-90
2022/06/25 04:33:06;;;;;;;1.08;0.82;;;16.90;99.90;;;;;;5102846;27;20050;-90
2022/06/25 04:35:32;;;;;;;5.15;2.67;;;16.20;99.90;;;;;;5120157;27;20035;-90
2022/06/25 04:37:58;;;;;;;1.52;1.25;;;17.50;99.90;;;;;;5123796;27;20024;-90
2022/06/25 04:40:23;;;;;;;1.05;0.73;;;16.20;99.90;;;;;;5123638;27;20019;-90
2022/06/25 04:42:49;;;;;;;1.40;1.17;;;16.30;99.90;;;;;;5123664;27;20023;-90
2022/06/25 04:45:14;;;;;;;2.60;1.60;;;16.20;99.90;;;;;;5123494;27;20035;-90
2022/06/25 04:47:40;;;;;;;1.88;1.48;;;16.20;99.90;;;;;;5141492;27;20020;-90
2022/06/25 04:50:07;;;;;;;2.30;1.23;;;16.30;99.90;;;;;;5123851;28;20051;-90
2022/06/25 04:52:33;;;;;;;1.60;1.13;;;16.40;99.90;;;;;;5123627;27;20042;-89
2022/06/25 04:54:59;;;;;;;0.95;0.85;;;17.00;99.90;;;;;;5123469;27;20063;-90
2022/06/25 04:57:24;;;;;;;0.88;0.85;;;17.70;99.90;;;;;;5123309;27;20058;-90
2022/06/25 04:59:50;;;;;;;0.68;0.60;;;18.30;99.90;;;;;;5123563;27;20039;-90
2022/06/25 05:02:15;;;;;;;0.75;0.73;;;18.80;99.90;;;;;;5123248;27;20024;-90
2022/06/25 05:04:41;;;;;;;0.28;0.28;;;19.90;99.90;;;;;;5106443;27;20044;-90
2022/06/25 05:07:07;;;;;;;0.70;0.52;;;19.70;99.90;;;;;;5123347;28;20024;-89
2022/06/25 05:09:33;;;;;;;0.52;0.43;;;20.30;99.90;;;;;;5123407;27;20027;-89
2022/06/25 05:11:59;;;;;;;0.55;0.35;;;21.50;99.90;;;;;;5123307;27;20086;-91
2022/06/25 05:14:24;;;;;;;0.03;0.03;;;20.30;99.90;;;;;;5089594;27;20201;-90
2022/06/25 05:16:50;;;;;;;1.15;0.82;;;22.10;99.90;;;;;;5123275;27;20031;-90
2022/06/25 05:19:16;;;;;;;0.52;0.40;;;21.40;99.90;;;;;;5123322;27;20024;-90
2022/06/25 05:21:42;;;;;;;0.40;0.32;;;22.60;99.90;;;;;;5123007;28;20065;-90
2022/06/25 05:24:07;;;;;;;1.10;0.90;;;22.40;99.90;;;;;;5123091;27;20016;-89
2022/06/25 05:26:33;;;;;;;0.35;0.22;;;22.80;99.90;;;;;;5122957;27;20047;-89
2022/06/25 05:28:59;;;;;;;0.25;0.17;;;23.20;99.90;;;;;;5105942;27;20032;-90
2022/06/25 05:31:24;;;;;;;2.00;1.00;;;22.90;99.90;;;;;;5123081;28;20028;-90
2022/06/25 05:33:50;;;;;;;0.65;0.55;;;23.60;99.90;;;;;;5106121;27;20024;-90
2022/06/25 05:36:17;;;;;;;0.60;0.35;;;23.90;99.90;;;;;;5122742;27;20028;-90
2022/06/25 05:38:42;;;;;;;0.57;0.43;;;23.60;99.90;;;;;;5105888;27;20024;-90
2022/06/25 05:41:08;;;;;;;6.68;1.23;;;23.50;99.90;;;;;;5140541;27;20043;-90
2022/06/25 05:43:38;;;;;;;0.30;0.22;;;24.00;99.90;;;;;;5122908;27;20078;-90
2022/06/25 05:46:04;;;;;;;0.88;0.65;;;24.00;99.90;;;;;;5122556;27;20024;-90
2022/06/25 05:48:30;;;;;;;0.38;0.35;;;24.70;99.90;;;;;;5121412;28;20244;-90
2022/06/25 05:50:56;;;;;;;0.60;0.47;;;24.20;99.90;;;;;;5122554;28;20073;-90
2022/06/25 05:53:26;;;;;;;6.75;1.15;;;24.30;99.90;;;;;;5122613;27;20077;-90
2022/06/25 05:55:52;;;;;;;0.20;0.20;;;24.20;99.90;;;;;;5105722;27;20033;-90
2022/06/25 05:58:18;;;;;;;0.15;0.15;;;24.40;99.90;;;;;;5140263;27;20077;-90
2022/06/25 06:00:44;;;;;;;0.20;0.20;;;25.50;99.90;;;;;;5105569;27;20034;-90
2022/06/25 06:03:10;;;;;;;1.40;0.70;;;24.80;99.90;;;;;;5105588;27;20024;-90
2022/06/25 06:05:37;;;;;;;0.57;0.32;;;24.90;99.90;;;;;;5105386;27;20028;-90
2022/06/25 06:08:03;;;;;;;4.38;0.95;;;25.20;99.90;;;;;;5105538;28;20068;-90
2022/06/25 06:10:28;;;;;;;1.00;0.63;;;25.10;99.90;;;;;;5122244;27;20039;-90
2022/06/25 06:12:54;;;;;;;1.08;0.68;;;25.30;99.90;;;;;;5122045;27;20039;-90
2022/06/25 06:15:19;;;;;;;0.45;0.20;;;25.40;99.90;;;;;;5105454;27;20039;-89
2022/06/25 06:17:45;;;;;;;0.47;0.45;;;25.50;99.90;;;;;;5139897;27;20027;-90
2022/06/25 06:20:11;;;;;;;0.17;0.17;;;25.80;99.90;;;;;;5122036;27;20103;-90
2022/06/25 06:22:37;;;;;;;1.48;0.73;;;26.20;99.90;;;;;;5122006;27;20030;-90
2022/06/25 06:25:03;;;;;;;0.10;0.10;;;26.30;99.90;;;;;;5119778;28;20097;-91
2022/06/25 06:27:29;;;;;;;0.10;0.10;;;26.50;99.90;;;;;;5119976;27;20031;-91
2022/06/25 06:29:55;;;;;;;0.77;0.28;;;25.70;99.90;;;;;;5103112;27;20072;-91
2022/06/25 06:32:21;;;;;;;1.27;0.68;;;26.40;99.90;;;;;;5120469;27;20042;-90
2022/06/25 06:34:46;;;;;;;0.00;0.00;;;25.90;99.90;;;;;;5120874;28;20044;-92
2022/06/25 06:37:12;;;;;;;1.75;0.70;;;26.40;99.90;;;;;;5120795;27;20091;-91
2022/06/25 06:39:38;;;;;;;0.30;0.20;;;25.90;99.90;;;;;;5138996;27;20043;-93
2022/06/25 06:42:04;;;;;;;1.73;0.47;;;26.20;99.90;;;;;;5120760;27;20031;-92
2022/06/25 06:44:30;;;;;;;0.20;0.20;;;26.00;99.90;;;;;;5138222;27;20057;-92
2022/06/25 06:46:55;;;;;;;0.47;0.40;;;26.10;99.90;;;;;;5120789;27;20077;-92
2022/06/25 06:49:21;;;;;;;0.10;0.10;;;26.20;99.90;;;;;;5103906;28;20032;-92
2022/06/25 06:51:47;;;;;;;0.40;0.40;;;26.60;99.90;;;;;;5137724;27;20031;-92
2022/06/25 06:54:12;;;;;;;1.58;0.77;;;27.20;99.90;;;;;;5120540;27;20023;-92
2022/06/25 06:56:38;;;;;;;0.05;0.05;;;27.40;98.40;;;;;;5103179;28;20024;-92
2022/06/25 06:59:03;;;;;;;0.17;0.15;;;27.70;95.80;;;;;;5119085;27;20028;-91
2022/06/25 07:01:29;;;;;;;0.03;0.03;;;28.50;98.90;;;;;;5102205;28;20032;-92
2022/06/25 07:03:55;;;;;;;1.15;0.55;;;28.00;92.30;;;;;;5137188;27;20027;-92
2022/06/25 07:06:20;;;;;;;0.17;0.17;;;27.90;90.60;;;;;;5102042;27;20035;-93
2022/06/25 07:08:46;;;;;;;0.95;0.80;;;28.10;89.50;;;;;;5112701;27;20059;-87
2022/06/25 07:11:30;;;;;;;0.15;0.15;;;28.60;87.90;;;;;;5098701;28;20048;-87
2022/06/25 07:14:01;;;;;;;1.08;0.47;;;28.30;89.90;;;;;;5062102;28;20479;-87
2022/06/25 07:16:28;;;;;;;0.20;0.13;;;28.70;86.70;;;;;;5079474;28;20093;-87
2022/06/25 07:18:55;;;;;;;0.70;0.40;;;29.10;69.10;;;;;;5078317;28;20131;-88
2022/06/25 07:21:21;;;;;;;0.10;0.10;;;29.20;70.40;;;;;;5065857;28;20034;-87
2022/06/25 07:23:47;;;;;;;0.32;0.30;;;29.20;56.00;;;;;;5100872;28;20082;-87
2022/06/25 07:26:12;;;;;;;0.00;0.00;;;29.10;64.00;;;;;;5098800;28;20091;-87
2022/06/25 07:28:38;;;;;;;2.38;0.43;;;28.90;67.90;;;;;;5097596;28;20056;-87
2022/06/25 07:31:03;;;;;;;0.00;0.00;;;28.90;57.20;;;;;;5101976;28;20054;-86
2022/06/25 07:33:29;;;;;;;3.42;0.63;;;29.00;55.30;;;;;;5104236;28;20129;-87
2022/06/25 07:35:56;;;;;;;1.55;0.68;;;29.10;53.50;;;;;;5101184;28;20055;-86
2022/06/25 07:38:21;;;;;;;0.52;0.38;;;29.10;40.40;;;;;;5084011;28;20055;-87
2022/06/25 07:40:47;;;;;;;0.52;0.32;;;29.10;39.80;;;;;;5119108;28;20046;-87
2022/06/25 07:43:13;;;;;;;0.93;0.60;;;29.10;41.80;;;;;;5101625;28;20075;-86
2022/06/25 07:45:38;;;;;;;0.00;0.00;;;29.10;42.00;;;;;;5118444;28;20047;-86
2022/06/25 07:48:04;;;;;;;0.22;0.20;;;30.20;43.60;;;;;;5120099;28;20101;-87
2022/06/25 07:53:14;;;;;;;0.00;0.00;;;30.20;55.20;;;;;;5100628;28;20527;-87
2022/06/25 07:55:39;;;;;;;0.05;0.03;;;30.90;42.10;;;;;;5067397;28;20103;-87
2022/06/25 07:58:05;;;;;;;0.28;0.25;;;30.80;16.80;;;;;;5100516;28;20047;-86
2022/06/25 08:00:31;;;;;;;1.00;0.52;;;30.30;38.20;;;;;;5110231;28;20466;-86
2022/06/25 08:02:56;;;;;;;0.20;0.00;;;30.20;19.80;;;;;;5112134;28;20044;-87
2022/06/25 08:05:22;;;;;;;0.00;0.00;;;29.20;29.10;;;;;;5071230;28;20036;-86
2022/06/25 08:07:49;;;;;;;0.20;0.20;;;29.00;28.50;;;;;;5086525;28;20078;-87
2022/06/25 08:10:15;;;;;;;0.22;0.20;;;29.20;30.60;;;;;;5096884;28;20077;-86
2022/06/25 08:12:41;;;;;;;0.45;0.15;;;29.30;35.40;;;;;;5117388;28;20054;-87
2022/06/25 08:15:07;;;;;;;5.82;1.52;;;30.00;24.00;;;;;;5118578;28;20040;-85
2022/06/25 08:17:42;;;;;;;0.52;0.40;;;30.10;25.40;;;;;;5098657;28;20050;-85
2022/06/25 08:20:08;;;;;;;1.20;0.50;;;30.10;32.70;;;;;;5099403;28;20099;-85
2022/06/25 08:22:34;;;;;;;0.30;0.15;;;29.90;25.30;;;;;;5100737;28;20044;-85
2022/06/25 08:24:59;;;;;;;0.00;0.00;;;29.90;19.90;;;;;;5106362;28;20039;-85
2022/06/25 08:27:25;;;;;;;1.58;0.40;;;30.00;28.90;;;;;;5109347;28;20066;-85
2022/06/25 08:29:50;;;;;;;0.35;0.30;;;30.10;35.50;;;;;;5125186;28;20100;-85
2022/06/25 08:32:16;;;;;;;0.00;0.00;;;30.00;25.80;;;;;;5125834;28;20035;-86
2022/06/25 08:34:42;;;;;;;0.45;0.20;;;29.80;42.90;;;;;;5102725;28;20056;-85
2022/06/25 08:37:07;;;;;;;0.20;0.20;;;29.60;30.80;;;;;;5116208;28;20043;-86
2022/06/25 08:39:33;;;;;;;0.30;0.13;;;29.10;36.20;;;;;;5120143;28;20156;-86
2022/06/25 08:42:03;;;;;;;0.00;0.00;;;29.70;26.80;;;;;;5120023;28;20118;-86
2022/06/25 08:44:30;;;;;;;0.00;0.00;;;29.80;39.70;;;;;;5101211;28;20051;-86
2022/06/25 08:46:58;;;;;;;1.40;0.50;;;29.80;27.90;;;;;;5104241;28;20063;-86
2022/06/25 08:49:24;;;;;;;0.88;0.43;;;29.80;11.60;;;;;;5105103;28;20047;-86
2022/06/25 08:51:57;;;;;;;0.40;0.30;;;29.20;24.90;;;;;;5117515;28;20078;-86
2022/06/25 08:54:24;;;;;;;0.15;0.08;;;28.40;29.80;;;;;;5115485;28;20050;-87
2022/06/25 08:56:50;;;;;;;4.18;0.65;;;28.10;26.90;;;;;;5095486;28;20048;-87
2022/06/25 08:59:17;;;;;;;0.10;0.10;;;27.50;41.00;;;;;;5095441;28;20416;-87
2022/06/25 09:01:44;;;;;;;0.28;0.28;;;26.80;42.70;;;;;;5095426;28;20693;-87
2022/06/25 09:04:10;;;;;;;1.90;0.65;;;26.30;62.00;;;;;;5095757;28;20055;-86
2022/06/25 09:06:35;;;;;;;1.33;0.50;;;26.40;54.30;;;;;;5096207;28;20410;-87
2022/06/25 09:09:15;;;;;;;0.00;0.00;;;26.10;54.20;;;;;;5079347;28;20039;-87
2022/06/25 09:12:14;;;;;;;0.08;0.08;;;25.90;57.30;;;;;;5095781;28;20074;-88
2022/06/25 09:14:41;;;;;;;0.45;0.40;;;25.70;70.70;;;;;;5045533;28;20055;-87
2022/06/25 09:17:14;;;;;;;0.55;0.40;;;25.60;74.00;;;;;;5097229;28;20036;-86
2022/06/25 09:19:49;;;;;;;0.30;0.25;;;25.70;77.80;;;;;;5096299;28;20039;-86
2022/06/25 09:22:21;;;;;;;0.30;0.30;;;25.60;79.10;;;;;;5097557;28;20192;-86
2022/06/25 09:24:55;;;;;;;0.00;0.00;;;26.10;82.10;;;;;;5100278;28;20103;-87
2022/06/25 09:27:36;;;;;;;1.05;0.60;;;27.90;69.90;;;;;;5118755;28;20054;-87
2022/06/25 09:30:16;;;;;;;0.00;0.00;;;27.90;56.40;;;;;;5083407;28;20119;-87
2022/06/25 09:32:57;;;;;;;0.10;0.10;;;28.60;35.00;;;;;;5118336;28;20126;-86
2022/06/25 09:35:42;;;;;;;0.30;0.25;;;28.50;30.00;;;;;;5084366;28;20032;-86
2022/06/25 09:38:16;;;;;;;1.08;0.63;;;28.20;25.40;;;;;;5102058;28;20126;-86
2022/06/25 09:40:57;;;;;;;2.63;0.32;;;28.00;34.20;;;;;;5120204;28;20051;-87
2022/06/25 09:43:28;;;;;;;1.17;0.40;;;28.30;32.00;;;;;;5102501;28;20137;-86
2022/06/25 09:45:56;;;;;;;0.63;0.32;;;28.40;35.90;;;;;;5119073;28;20039;-87
2022/06/25 09:48:27;;;;;;;0.00;0.00;;;28.50;38.80;;;;;;5100928;28;20044;-87
2022/06/25 09:51:07;;;;;;;0.00;0.00;;;28.50;30.80;;;;;;5118596;28;20040;-86
2022/06/25 09:53:34;;;;;;;1.10;0.38;;;28.30;27.70;;;;;;5103201;28;20093;-87
2022/06/25 09:56:01;;;;;;;0.22;0.20;;;28.30;35.70;;;;;;5084157;28;20051;-87
2022/06/25 09:58:28;;;;;;;0.20;0.20;;;29.00;26.80;;;;;;5084036;28;20036;-87
2022/06/25 10:00:54;;;;;;;0.10;0.10;;;28.80;21.70;;;;;;5101722;28;20047;-86
2022/06/25 10:03:21;;;;;;;2.17;0.38;;;29.30;27.90;;;;;;5119363;28;20517;-86
2022/06/25 10:05:47;;;;;;;0.20;0.13;;;29.20;30.70;;;;;;5090183;28;20040;-86
2022/06/25 10:08:15;;;;;;;0.28;0.10;;;29.30;20.40;;;;;;5109663;28;20464;-89
2022/06/25 10:10:47;;;;;;;0.00;0.00;;;29.00;26.30;;;;;;5108961;28;20076;-89
2022/06/25 10:13:13;;;;;;;2.42;1.02;;;29.10;14.00;;;;;;5111443;28;20048;-89
2022/06/25 10:15:39;;;;;;;1.30;0.32;;;28.60;19.00;;;;;;5130377;28;20065;-89
2022/06/25 10:18:09;;;;;;;0.43;0.43;;;28.80;19.40;;;;;;5131421;28;20036;-89
2022/06/25 10:20:37;;;;;;;0.10;0.10;;;27.50;29.40;;;;;;5114301;28;20055;-89
2022/06/25 10:23:04;;;;;;;0.10;0.10;;;27.40;35.40;;;;;;5129344;28;20039;-89
2022/06/25 10:25:31;;;;;;;6.07;0.25;;;26.90;28.00;;;;;;5129595;28;20116;-89
2022/06/25 10:28:06;;;;;;;0.10;0.10;;;27.60;27.40;;;;;;5131251;28;20075;-90
2022/06/25 10:30:49;;;;;;;0.00;0.00;;;28.00;25.60;;;;;;5114224;28;20028;-89
2022/06/25 10:33:23;;;;;;;0.10;0.10;;;27.80;26.90;;;;;;5130925;28;20055;-89
2022/06/25 10:35:51;;;;;;;0.00;0.00;;;27.90;30.20;;;;;;5113303;28;20489;-89
2022/06/25 10:38:22;;;;;;;1.27;0.57;;;28.10;26.50;;;;;;5113115;28;20036;-89
2022/06/25 10:43:58;;;;;;;0.00;0.00;;;28.30;32.30;;;;;;5133001;28;20043;-89
2022/06/25 10:46:40;;;;;;;0.13;0.10;;;29.00;24.10;;;;;;5131766;28;20080;-89
2022/06/25 10:49:18;;;;;;;0.00;0.00;;;29.10;18.80;;;;;;5136240;28;20035;-89
2022/06/25 10:51:45;;;;;;;0.00;0.00;;;28.60;16.40;;;;;;5120471;27;20047;-89
2022/06/25 10:54:33;;;;;;;0.05;0.03;;;28.00;22.90;;;;;;5138262;27;20043;-90
2022/06/25 10:57:00;;;;;;;0.00;0.00;;;27.40;24.00;;;;;;5130645;28;20048;-89
2022/06/25 10:59:34;;;;;;;0.45;0.20;;;27.40;27.40;;;;;;5131876;28;20457;-89
2022/06/25 11:02:06;;;;;;;0.10;0.10;;;28.00;28.40;;;;;;5129897;28;20031;-89
2022/06/25 11:04:33;;;;;;;0.10;0.10;;;27.40;25.00;;;;;;5129518;28;20095;-89
2022/06/25 11:07:12;;;;;;;0.17;0.10;;;27.40;29.40;;;;;;5129753;28;20118;-89
2022/06/25 11:09:39;;;;;;;0.17;0.10;;;28.20;25.20;;;;;;5130758;28;20036;-89
2022/06/25 11:12:07;;;;;;;0.20;0.20;;;28.30;15.40;;;;;;5112996;28;20058;-89
2022/06/25 11:14:33;;;;;;;0.00;0.00;;;28.20;22.40;;;;;;5096741;28;20035;-89
2022/06/25 11:17:08;;;;;;;0.08;0.08;;;27.90;24.40;;;;;;5130615;28;20054;-89
2022/06/25 11:19:34;;;;;;;0.00;0.00;;;27.50;28.70;;;;;;5131959;28;20047;-90
2022/06/25 11:22:03;;;;;;;0.00;0.00;;;27.90;30.40;;;;;;5130388;28;20103;-89
2022/06/25 11:24:30;;;;;;;1.23;0.28;;;29.10;26.70;;;;;;5112411;28;20053;-90
2022/06/25 11:29:52;;;;;;;0.00;0.00;;;29.00;13.50;;;;;;5108906;28;20086;-90
2022/06/25 11:32:27;;;;;;;0.65;0.32;;;29.10;14.60;;;;;;5106549;28;20792;-90
2022/06/25 11:34:58;;;;;;;0.43;0.20;;;28.80;16.80;;;;;;5106232;28;20051;-90
2022/06/25 11:37:25;;;;;;;0.32;0.10;;;28.40;20.00;;;;;;5108400;28;20051;-90
2022/06/25 11:39:51;;;;;;;0.52;0.20;;;28.50;20.40;;;;;;5109437;28;20028;-90
2022/06/25 11:42:18;;;;;;;0.00;0.00;;;28.30;24.70;;;;;;5107986;28;20082;-90
2022/06/25 11:44:56;;;;;;;0.00;0.00;;;28.30;23.30;;;;;;5110071;28;20036;-90
2022/06/25 11:47:25;;;;;;;0.00;0.00;;;28.40;25.60;;;;;;5107891;28;20088;-90
2022/06/25 11:49:52;;;;;;;0.05;0.03;;;29.40;25.90;;;;;;5109969;28;20079;-90
2022/06/25 11:52:20;;;;;;;0.88;0.68;;;30.30;20.20;;;;;;5085578;28;20098;-90
2022/06/25 11:54:47;;;;;;;0.00;0.00;;;31.10;11.60;;;;;;5103145;28;20043;-89
2022/06/25 11:57:17;;;;;;;0.00;0.00;;;31.90;5.30;;;;;;5106661;28;20036;-90
2022/06/25 11:59:43;;;;;;;0.10;0.03;;;32.70;1.00;;;;;;5105257;28;20523;-90
2022/06/25 12:02:09;;;;;;;0.70;0.25;;;32.70;1.00;;;;;;5103499;28;20040;-89
2022/06/25 12:04:51;;;;;;;0.00;0.00;;;31.30;1.00;;;;;;5103619;28;20056;-90
2022/06/25 12:07:21;;;;;;;0.10;0.10;;;30.50;2.60;;;;;;5103803;28;20363;-90
2022/06/25 12:09:47;;;;;;;0.15;0.15;;;29.70;4.00;;;;;;5100809;28;20036;-90
2022/06/25 12:12:13;;;;;;;0.00;0.00;;;29.20;9.60;;;;;;5105438;28;20044;-90
2022/06/25 12:14:40;;;;;;;0.00;0.00;;;29.10;12.40;;;;;;5105557;28;20058;-91
2022/06/25 12:17:06;;;;;;;0.13;0.13;;;28.90;15.70;;;;;;5104989;28;20039;-90
2022/06/25 12:19:52;;;;;;;0.00;0.00;;;28.70;17.40;;;;;;5085385;28;20050;-90
2022/06/25 12:22:19;;;;;;;0.32;0.20;;;28.40;15.00;;;;;;5104338;28;20040;-89
2022/06/25 12:24:48;;;;;;;0.15;0.10;;;28.70;17.70;;;;;;5101597;28;20040;-86
2022/06/25 12:27:13;;;;;;;0.08;0.08;;;28.50;18.10;;;;;;5112152;28;20399;-86
2022/06/25 12:29:39;;;;;;;0.35;0.28;;;27.90;21.20;;;;;;5101036;28;20047;-88
2022/06/25 12:32:05;;;;;;;0.00;0.00;;;27.30;23.60;;;;;;5102963;28;20088;-88
2022/06/25 12:34:31;;;;;;;6.50;1.55;;;27.20;27.40;;;;;;5099243;28;20043;-87
2022/06/25 12:36:57;;;;;;;0.30;0.22;;;27.20;28.20;;;;;;5127098;28;20073;-92
2022/06/25 12:39:37;;;;;;;1.48;0.52;;;27.00;30.50;;;;;;5111820;28;20055;-91
2022/06/25 12:42:12;;;;;;;0.00;0.00;;;26.80;36.10;;;;;;5091722;28;20153;-91
2022/06/25 12:44:40;;;;;;;1.08;0.57;;;26.50;43.70;;;;;;5109852;28;20059;-92
2022/06/25 12:47:14;;;;;;;0.10;0.10;;;26.00;58.00;;;;;;5107234;28;20043;-92
2022/06/25 12:49:44;;;;;;;0.00;0.00;;;25.70;66.50;;;;;;5108144;28;20040;-91
2022/06/25 12:52:11;;;;;;;0.35;0.25;;;25.60;72.70;;;;;;5106997;28;20040;-92
2022/06/25 12:54:51;;;;;;;0.32;0.30;;;25.90;81.50;;;;;;5106276;28;20047;-92
2022/06/25 12:57:28;;;;;;;0.10;0.10;;;25.80;80.10;;;;;;5106111;28;20097;-91
2022/06/25 13:00:06;;;;;;;0.00;0.00;;;25.90;78.20;;;;;;5106932;28;20115;-90
2022/06/25 13:02:32;;;;;;;0.20;0.08;;;25.90;75.80;;;;;;5109860;28;20055;-91
2022/06/25 13:04:58;;;;;;;0.00;0.00;;;25.90;81.40;;;;;;5089482;28;20039;-91